»·PEaware :: N5055J KSBD-L08

N5055J :: KSBD-L08

FLIGHT INFORMATION

Flight Status: Arrived
Operator: Privately registered:
United States
More flights under this callsign
Pilot: Scott M. (16181)
Aircraft: Unknown
(X-EF)
More flights by this aircraft type
Origin: KSBD San Bernardino Intl
United States
Destination: L08 Borrego Valley
United States
More flights between these airports :: More routes between these airports
Route:
File this flight plan on PilotEdge
Remarks:
Altitude:
(Current/Filed)
7,500ft
Speed:
(Current/Filed)
100kts
Departed: 10-Sep-18 04:52 PM
Arrived: 10-Sep-18 05:45 PM
Distance/Time
Traveled:
68nm/0:53
Distance/Time
To Go:
Arrived

Flight Plot

Page will automatically refresh every two minutes.


Map Options




Map Legend


Flown Route
Filed Route
Departure Airport
Arrival Airport
Navaid (VOR, NDB)
Fix

Horizontal Profiles

Position Reports

Time Latitude Longitude Heading Altitude Ground
Speed
10-Sep-18 16:40 34.102425 -117.224717 94 1145ft 0kts
10-Sep-18 16:41 34.102425 -117.224717 94 1145ft 0kts
10-Sep-18 16:42 34.102425 -117.224717 94 1145ft 0kts
10-Sep-18 16:43 34.102425 -117.224717 94 1145ft 0kts
10-Sep-18 16:44 34.102425 -117.224717 94 1145ft 0kts
10-Sep-18 16:45 34.102425 -117.224717 94 1145ft 0kts
10-Sep-18 16:46 34.102425 -117.224717 94 1145ft 0kts
10-Sep-18 16:47 34.102077 -117.224488 191 1146ft 5kts
10-Sep-18 16:48 34.100725 -117.225400 250 1143ft 5kts
10-Sep-18 16:49 34.099720 -117.227082 126 1138ft 7kts
10-Sep-18 16:50 34.100218 -117.224490 71 1146ft 9kts
10-Sep-18 16:51 34.101289 -117.220928 70 1155ft 8kts
10-Sep-18 16:52 34.100848 -117.219788 165 1159ft 0kts
10-Sep-18 16:53 34.100540 -117.219659 163 1159ft 9kts
10-Sep-18 16:54 34.096366 -117.229649 247 1567ft 59kts
10-Sep-18 16:55 34.087040 -117.246850 152 2362ft 82kts
10-Sep-18 16:56 34.077275 -117.221347 131 2999ft 79kts
10-Sep-18 16:57 34.063409 -117.201822 143 3815ft 77kts
10-Sep-18 16:58 34.047496 -117.183233 139 4528ft 82kts
10-Sep-18 16:59 34.030734 -117.163391 141 4928ft 85kts
10-Sep-18 17:00 34.014311 -117.145289 138 5206ft 83kts
10-Sep-18 17:01 33.997507 -117.125745 139 5657ft 85kts
10-Sep-18 17:02 33.983009 -117.109803 142 5776ft 84kts
10-Sep-18 17:03 33.962133 -117.088569 142 5747ft 88kts
10-Sep-18 17:04 33.946303 -117.071608 143 5722ft 94kts
10-Sep-18 17:05 33.926148 -117.052929 144 5758ft 92kts
10-Sep-18 17:06 33.909273 -117.030801 125 6249ft 91kts
10-Sep-18 17:07 33.895578 -117.006793 123 6843ft 91kts
10-Sep-18 17:08 33.878677 -116.983919 132 7375ft 95kts
10-Sep-18 17:09 33.861283 -116.958302 126 7735ft 106kts
10-Sep-18 17:10 33.842079 -116.934376 144 7637ft 97kts
10-Sep-18 17:11 33.821476 -116.915641 140 7503ft 92kts
10-Sep-18 17:12 33.801996 -116.896383 140 7566ft 91kts
10-Sep-18 17:13 33.782668 -116.877112 139 7691ft 90kts
10-Sep-18 17:14 33.762931 -116.857339 140 7645ft 94kts
10-Sep-18 17:15 33.742675 -116.838165 140 7501ft 91kts
10-Sep-18 17:16 33.723345 -116.818992 139 7475ft 90kts
10-Sep-18 17:17 33.704412 -116.799731 136 7500ft 89kts
10-Sep-18 17:18 33.685852 -116.780187 137 7453ft 88kts
10-Sep-18 17:19 33.668262 -116.759885 131 7493ft 88kts
10-Sep-18 17:20 33.651578 -116.738197 132 7586ft 89kts
10-Sep-18 17:21 33.634495 -116.716926 132 7552ft 90kts
10-Sep-18 17:22 33.616976 -116.696028 131 7419ft 87kts
10-Sep-18 17:23 33.599980 -116.674891 134 7484ft 88kts
10-Sep-18 17:24 33.582785 -116.654023 132 7531ft 88kts
10-Sep-18 17:25 33.565299 -116.633384 137 7417ft 88kts
10-Sep-18 17:26 33.546359 -116.614949 139 7270ft 88kts
10-Sep-18 17:27 33.528274 -116.595482 135 7135ft 88kts
10-Sep-18 17:28 33.510636 -116.576914 141 6887ft 87kts
10-Sep-18 17:29 33.490640 -116.560401 147 6572ft 88kts
10-Sep-18 17:30 33.470331 -116.545060 134 6257ft 86kts
10-Sep-18 17:31 33.452775 -116.526141 130 5959ft 84kts
10-Sep-18 17:32 33.435976 -116.506497 135 5629ft 84kts
10-Sep-18 17:33 33.419861 -116.488076 131 5348ft 81kts
10-Sep-18 17:34 33.404293 -116.469290 131 5063ft 78kts
10-Sep-18 17:35 33.389064 -116.450952 136 4725ft 77kts
10-Sep-18 17:36 33.374548 -116.434298 139 4410ft 75kts
10-Sep-18 17:37 33.358832 -116.417809 141 4149ft 74kts
10-Sep-18 17:38 33.343048 -116.402210 139 3370ft 73kts
10-Sep-18 17:39 33.327253 -116.387940 141 2477ft 70kts
10-Sep-18 17:40 33.313379 -116.374895 142 2028ft 57kts
10-Sep-18 17:41 33.300772 -116.363809 140 1890ft 53kts
10-Sep-18 17:42 33.288123 -116.352448 142 1779ft 59kts
10-Sep-18 17:43 33.277544 -116.337586 97 1516ft 60kts
10-Sep-18 17:44 33.275814 -116.318689 93 1361ft 53kts
10-Sep-18 17:45 33.271893 -116.304153 172 1301ft 56kts
10-Sep-18 17:46 33.259374 -116.307009 257 817ft 67kts
10-Sep-18 17:47 33.258932 -116.323842 268 518ft 14kts
10-Sep-18 17:48 33.257895 -116.326140 177 518ft 6kts
10-Sep-18 17:49 33.257746 -116.325774 180 518ft 0kts

Navigation Log

Ident Type
Flight plan parsing failed, navigation log unavailable